sensor_id;sensor_type;location;lat;lon;timestamp;pressure;altitude;pressure_sealevel;temperature;humidity
5380;BME280;2713;42.680;23.310;2022-07-21T00:01:15;95336.13;;;24.12;47.33
5380;BME280;2713;42.680;23.310;2022-07-21T00:03:43;95326.38;;;24.23;46.35
5380;BME280;2713;42.680;23.310;2022-07-21T00:06:10;95331.72;;;24.33;46.56
5380;BME280;2713;42.680;23.310;2022-07-21T00:08:37;95332.78;;;24.32;46.59
5380;BME280;2713;42.680;23.310;2022-07-21T00:11:04;95330.78;;;24.07;46.74
5380;BME280;2713;42.680;23.310;2022-07-21T00:13:31;95327.97;;;24.24;46.28
5380;BME280;2713;42.680;23.310;2022-07-21T00:15:58;95328.22;;;24.22;46.73
5380;BME280;2713;42.680;23.310;2022-07-21T00:18:25;95326.91;;;24.25;46.71
5380;BME280;2713;42.680;23.310;2022-07-21T00:20:55;95339.13;;;24.26;46.70
5380;BME280;2713;42.680;23.310;2022-07-21T00:23:22;95330.41;;;24.31;46.43
5380;BME280;2713;42.680;23.310;2022-07-21T00:25:49;95332.25;;;24.30;46.57
5380;BME280;2713;42.680;23.310;2022-07-21T00:28:16;95330.34;;;24.20;47.20
5380;BME280;2713;42.680;23.310;2022-07-21T00:30:43;95335.38;;;24.17;46.92
5380;BME280;2713;42.680;23.310;2022-07-21T00:33:10;95337.38;;;24.05;47.22
5380;BME280;2713;42.680;23.310;2022-07-21T00:35:38;95328.53;;;23.89;47.62
5380;BME280;2713;42.680;23.310;2022-07-21T00:38:06;95339.69;;;23.91;47.35
5380;BME280;2713;42.680;23.310;2022-07-21T00:40:33;95337.09;;;24.01;46.27
5380;BME280;2713;42.680;23.310;2022-07-21T00:43:00;95337.81;;;23.92;46.29
5380;BME280;2713;42.680;23.310;2022-07-21T00:45:27;95330.63;;;23.87;46.19
5380;BME280;2713;42.680;23.310;2022-07-21T00:47:54;95331.47;;;23.98;45.67
5380;BME280;2713;42.680;23.310;2022-07-21T00:50:21;95334.38;;;23.91;45.12
5380;BME280;2713;42.680;23.310;2022-07-21T00:52:48;95338.63;;;23.92;45.16
5380;BME280;2713;42.680;23.310;2022-07-21T00:55:18;95338.84;;;23.86;44.77
5380;BME280;2713;42.680;23.310;2022-07-21T00:57:46;95335.38;;;23.80;44.79
5380;BME280;2713;42.680;23.310;2022-07-21T01:00:17;95332.16;;;23.78;44.43
5380;BME280;2713;42.680;23.310;2022-07-21T01:02:45;95331.72;;;23.91;44.19
5380;BME280;2713;42.680;23.310;2022-07-21T01:05:13;95326.16;;;23.93;43.99
5380;BME280;2713;42.680;23.310;2022-07-21T01:07:41;95324.34;;;23.61;44.44
5380;BME280;2713;42.680;23.310;2022-07-21T01:10:09;95320.44;;;23.74;44.81
5380;BME280;2713;42.680;23.310;2022-07-21T01:12:38;95322.19;;;23.58;45.72
5380;BME280;2713;42.680;23.310;2022-07-21T01:15:06;95316.81;;;23.53;46.21
5380;BME280;2713;42.680;23.310;2022-07-21T01:17:34;95316.66;;;23.65;45.69
5380;BME280;2713;42.680;23.310;2022-07-21T01:20:03;95315.34;;;23.67;45.84
5380;BME280;2713;42.680;23.310;2022-07-21T01:22:34;95318.78;;;23.63;46.07
5380;BME280;2713;42.680;23.310;2022-07-21T01:25:01;95310.03;;;23.62;46.34
5380;BME280;2713;42.680;23.310;2022-07-21T01:27:28;95311.66;;;23.68;46.05
5380;BME280;2713;42.680;23.310;2022-07-21T01:29:56;95310.47;;;23.54;47.05
5380;BME280;2713;42.680;23.310;2022-07-21T01:32:23;95313.75;;;23.66;47.18
5380;BME280;2713;42.680;23.310;2022-07-21T01:34:50;95310.59;;;23.69;47.17
5380;BME280;2713;42.680;23.310;2022-07-21T01:37:20;95312.16;;;23.65;47.80
5380;BME280;2713;42.680;23.310;2022-07-21T01:39:49;95311.34;;;23.65;47.07
5380;BME280;2713;42.680;23.310;2022-07-21T01:42:33;95302.56;;;23.59;47.24
5380;BME280;2713;42.680;23.310;2022-07-21T01:45:00;95285.38;;;23.40;47.57
5380;BME280;2713;42.680;23.310;2022-07-21T01:47:27;95304.06;;;23.50;47.73
5380;BME280;2713;42.680;23.310;2022-07-21T01:49:54;95304.34;;;23.49;47.52
5380;BME280;2713;42.680;23.310;2022-07-21T01:52:21;95303.53;;;23.48;47.30
5380;BME280;2713;42.680;23.310;2022-07-21T01:54:49;95309.69;;;23.27;47.24
5380;BME280;2713;42.680;23.310;2022-07-21T01:57:16;95305.84;;;23.13;47.80
5380;BME280;2713;42.680;23.310;2022-07-21T01:59:43;95309.19;;;23.03;47.72
5380;BME280;2713;42.680;23.310;2022-07-21T02:02:10;95307.38;;;23.09;47.61
5380;BME280;2713;42.680;23.310;2022-07-21T02:04:37;95304.81;;;22.87;48.09
5380;BME280;2713;42.680;23.310;2022-07-21T02:07:04;95305.16;;;22.74;48.84
5380;BME280;2713;42.680;23.310;2022-07-21T02:09:31;95293.28;;;22.77;48.29
5380;BME280;2713;42.680;23.310;2022-07-21T02:11:59;95304.50;;;22.84;48.30
5380;BME280;2713;42.680;23.310;2022-07-21T02:14:26;95309.00;;;22.83;48.51
5380;BME280;2713;42.680;23.310;2022-07-21T02:16:53;95300.97;;;22.78;48.23
5380;BME280;2713;42.680;23.310;2022-07-21T02:19:20;95310.31;;;22.81;48.43
5380;BME280;2713;42.680;23.310;2022-07-21T02:21:47;95311.00;;;22.98;48.56
5380;BME280;2713;42.680;23.310;2022-07-21T02:24:13;95313.66;;;22.98;49.16
5380;BME280;2713;42.680;23.310;2022-07-21T02:26:40;95306.78;;;23.02;48.78
5380;BME280;2713;42.680;23.310;2022-07-21T02:29:08;95302.16;;;23.14;48.01
5380;BME280;2713;42.680;23.310;2022-07-21T02:31:35;95303.38;;;23.06;48.28
5380;BME280;2713;42.680;23.310;2022-07-21T02:34:02;95303.59;;;23.00;48.55
5380;BME280;2713;42.680;23.310;2022-07-21T02:36:29;95303.59;;;23.00;48.71
5380;BME280;2713;42.680;23.310;2022-07-21T02:38:56;95305.13;;;22.96;48.90
5380;BME280;2713;42.680;23.310;2022-07-21T02:41:22;95305.81;;;23.08;48.83
5380;BME280;2713;42.680;23.310;2022-07-21T02:43:49;95293.63;;;23.12;48.98
5380;BME280;2713;42.680;23.310;2022-07-21T02:46:18;95297.19;;;22.96;49.18
5380;BME280;2713;42.680;23.310;2022-07-21T02:48:44;95291.66;;;22.97;48.98
5380;BME280;2713;42.680;23.310;2022-07-21T02:51:11;95297.78;;;23.03;49.38
5380;BME280;2713;42.680;23.310;2022-07-21T02:53:38;95291.88;;;22.96;49.24
5380;BME280;2713;42.680;23.310;2022-07-21T02:56:05;95295.94;;;23.03;49.57
5380;BME280;2713;42.680;23.310;2022-07-21T02:58:32;95295.47;;;22.85;49.87
5380;BME280;2713;42.680;23.310;2022-07-21T03:01:02;95293.03;;;22.78;49.96
5380;BME280;2713;42.680;23.310;2022-07-21T03:03:33;95299.00;;;22.90;48.90
5380;BME280;2713;42.680;23.310;2022-07-21T03:06:00;95300.00;;;22.84;48.96
5380;BME280;2713;42.680;23.310;2022-07-21T03:08:28;95304.78;;;22.44;49.78
5380;BME280;2713;42.680;23.310;2022-07-21T03:10:55;95309.16;;;22.33;49.72
5380;BME280;2713;42.680;23.310;2022-07-21T03:13:22;95311.00;;;22.54;49.22
5380;BME280;2713;42.680;23.310;2022-07-21T03:15:49;95305.59;;;22.66;48.92
5380;BME280;2713;42.680;23.310;2022-07-21T03:18:16;95301.66;;;22.47;49.31
5380;BME280;2713;42.680;23.310;2022-07-21T03:20:45;95304.44;;;22.35;49.64
5380;BME280;2713;42.680;23.310;2022-07-21T03:23:12;95301.16;;;22.28;49.75
5380;BME280;2713;42.680;23.310;2022-07-21T03:25:39;95310.78;;;22.34;49.58
5380;BME280;2713;42.680;23.310;2022-07-21T03:28:06;95316.44;;;22.21;49.55
5380;BME280;2713;42.680;23.310;2022-07-21T03:30:33;95309.34;;;22.05;49.76
5380;BME280;2713;42.680;23.310;2022-07-21T03:33:00;95306.19;;;22.08;49.67
5380;BME280;2713;42.680;23.310;2022-07-21T03:35:28;95313.41;;;22.34;49.09
5380;BME280;2713;42.680;23.310;2022-07-21T03:37:57;95309.47;;;22.37;48.56
5380;BME280;2713;42.680;23.310;2022-07-21T03:40:27;95318.66;;;22.29;49.03
5380;BME280;2713;42.680;23.310;2022-07-21T03:42:56;95310.59;;;22.19;49.47
5380;BME280;2713;42.680;23.310;2022-07-21T03:45:24;95311.28;;;22.31;48.97
5380;BME280;2713;42.680;23.310;2022-07-21T03:47:51;95310.41;;;22.47;48.63
5380;BME280;2713;42.680;23.310;2022-07-21T03:50:18;95320.38;;;22.62;48.30
5380;BME280;2713;42.680;23.310;2022-07-21T03:52:45;95314.38;;;22.66;48.27
5380;BME280;2713;42.680;23.310;2022-07-21T03:55:14;95322.00;;;22.63;48.16
5380;BME280;2713;42.680;23.310;2022-07-21T03:57:44;95318.69;;;22.72;47.96
5380;BME280;2713;42.680;23.310;2022-07-21T04:00:14;95329.94;;;22.41;48.52
5380;BME280;2713;42.680;23.310;2022-07-21T04:02:45;95319.59;;;22.40;48.87
5380;BME280;2713;42.680;23.310;2022-07-21T04:05:12;95329.22;;;22.46;48.29
5380;BME280;2713;42.680;23.310;2022-07-21T04:07:41;95322.84;;;22.47;47.96
5380;BME280;2713;42.680;23.310;2022-07-21T04:10:10;95330.06;;;22.51;47.99
5380;BME280;2713;42.680;23.310;2022-07-21T04:12:38;95327.91;;;22.48;48.21
5380;BME280;2713;42.680;23.310;2022-07-21T04:15:08;95324.25;;;22.54;48.35
5380;BME280;2713;42.680;23.310;2022-07-21T04:17:36;95331.88;;;22.67;47.92
5380;BME280;2713;42.680;23.310;2022-07-21T04:20:05;95326.13;;;22.76;47.90
5380;BME280;2713;42.680;23.310;2022-07-21T04:22:32;95326.69;;;22.78;48.09
5380;BME280;2713;42.680;23.310;2022-07-21T04:25:00;95329.81;;;22.96;47.53
5380;BME280;2713;42.680;23.310;2022-07-21T04:27:27;95331.22;;;23.04;47.49
5380;BME280;2713;42.680;23.310;2022-07-21T04:29:55;95327.03;;;23.08;47.67
5380;BME280;2713;42.680;23.310;2022-07-21T04:32:22;95322.34;;;23.20;47.53
5380;BME280;2713;42.680;23.310;2022-07-21T04:34:49;95319.59;;;23.10;47.71
5380;BME280;2713;42.680;23.310;2022-07-21T04:37:16;95323.41;;;23.19;47.47
5380;BME280;2713;42.680;23.310;2022-07-21T04:39:43;95320.81;;;23.24;47.14
5380;BME280;2713;42.680;23.310;2022-07-21T04:42:10;95321.50;;;23.41;46.89
5380;BME280;2713;42.680;23.310;2022-07-21T04:44:36;95324.19;;;23.46;46.72
5380;BME280;2713;42.680;23.310;2022-07-21T04:47:05;95324.66;;;23.70;45.94
5380;BME280;2713;42.680;23.310;2022-07-21T04:49:32;95333.91;;;23.99;45.12
5380;BME280;2713;42.680;23.310;2022-07-21T04:51:59;95334.63;;;24.32;44.79
5380;BME280;2713;42.680;23.310;2022-07-21T04:54:25;95346.53;;;24.76;43.29
5380;BME280;2713;42.680;23.310;2022-07-21T04:56:52;95335.22;;;25.06;42.32
5380;BME280;2713;42.680;23.310;2022-07-21T04:59:19;95340.66;;;25.51;41.47
5380;BME280;2713;42.680;23.310;2022-07-21T05:01:46;95341.19;;;25.89;40.64
5380;BME280;2713;42.680;23.310;2022-07-21T05:04:14;95341.16;;;26.09;39.58
5380;BME280;2713;42.680;23.310;2022-07-21T05:06:41;95339.00;;;26.11;39.15
5380;BME280;2713;42.680;23.310;2022-07-21T05:09:08;95339.28;;;26.25;39.23
5380;BME280;2713;42.680;23.310;2022-07-21T05:11:36;95335.78;;;26.39;39.73
5380;BME280;2713;42.680;23.310;2022-07-21T05:14:02;95333.97;;;25.89;40.61
5380;BME280;2713;42.680;23.310;2022-07-21T05:16:30;95327.03;;;26.18;39.26
5380;BME280;2713;42.680;23.310;2022-07-21T05:18:56;95326.09;;;26.58;39.03
5380;BME280;2713;42.680;23.310;2022-07-21T05:21:25;95327.72;;;26.54;39.36
5380;BME280;2713;42.680;23.310;2022-07-21T05:23:51;95333.75;;;26.90;38.70
5380;BME280;2713;42.680;23.310;2022-07-21T05:26:18;95341.94;;;27.04;38.92
5380;BME280;2713;42.680;23.310;2022-07-21T05:28:45;95336.38;;;27.44;37.99
5380;BME280;2713;42.680;23.310;2022-07-21T05:31:12;95338.72;;;27.56;38.39
5380;BME280;2713;42.680;23.310;2022-07-21T05:33:39;95315.97;;;27.58;37.67
5380;BME280;2713;42.680;23.310;2022-07-21T05:36:06;95333.78;;;27.68;36.98
5380;BME280;2713;42.680;23.310;2022-07-21T05:38:35;95336.69;;;27.71;38.93
5380;BME280;2713;42.680;23.310;2022-07-21T05:41:02;95331.56;;;28.14;37.28
5380;BME280;2713;42.680;23.310;2022-07-21T05:43:29;95329.16;;;28.36;36.37
5380;BME280;2713;42.680;23.310;2022-07-21T05:45:57;95331.94;;;28.26;35.39
5380;BME280;2713;42.680;23.310;2022-07-21T05:48:24;95332.25;;;28.48;35.46
5380;BME280;2713;42.680;23.310;2022-07-21T05:50:51;95335.19;;;28.76;35.11
5380;BME280;2713;42.680;23.310;2022-07-21T05:53:18;95334.47;;;28.89;34.93
5380;BME280;2713;42.680;23.310;2022-07-21T05:55:46;95332.97;;;29.01;34.62
5380;BME280;2713;42.680;23.310;2022-07-21T05:58:13;95336.44;;;29.02;34.48
5380;BME280;2713;42.680;23.310;2022-07-21T06:00:41;95333.56;;;28.75;34.95
5380;BME280;2713;42.680;23.310;2022-07-21T06:03:08;95328.84;;;28.90;34.80
5380;BME280;2713;42.680;23.310;2022-07-21T06:05:35;95332.06;;;29.11;34.36
5380;BME280;2713;42.680;23.310;2022-07-21T06:08:01;95321.41;;;29.25;33.72
5380;BME280;2713;42.680;23.310;2022-07-21T06:10:28;95329.94;;;29.08;34.12
5380;BME280;2713;42.680;23.310;2022-07-21T06:12:57;95325.13;;;29.47;32.98
5380;BME280;2713;42.680;23.310;2022-07-21T06:15:23;95326.88;;;29.70;33.34
5380;BME280;2713;42.680;23.310;2022-07-21T06:17:50;95334.16;;;29.33;33.03
5380;BME280;2713;42.680;23.310;2022-07-21T06:20:17;95328.56;;;29.66;32.96
5380;BME280;2713;42.680;23.310;2022-07-21T06:22:44;95325.28;;;29.88;32.57
5380;BME280;2713;42.680;23.310;2022-07-21T06:25:11;95318.19;;;30.11;32.46
5380;BME280;2713;42.680;23.310;2022-07-21T06:27:38;95319.38;;;30.18;32.37
5380;BME280;2713;42.680;23.310;2022-07-21T06:30:08;95314.00;;;30.05;32.63
5380;BME280;2713;42.680;23.310;2022-07-21T06:32:35;95312.69;;;29.89;32.88
5380;BME280;2713;42.680;23.310;2022-07-21T06:35:02;95311.13;;;30.01;32.77
5380;BME280;2713;42.680;23.310;2022-07-21T06:37:29;95306.91;;;29.63;33.57
5380;BME280;2713;42.680;23.310;2022-07-21T06:39:56;95307.66;;;30.14;32.84
5380;BME280;2713;42.680;23.310;2022-07-21T06:42:23;95302.28;;;30.14;33.09
5380;BME280;2713;42.680;23.310;2022-07-21T06:44:50;95301.69;;;30.04;32.84
5380;BME280;2713;42.680;23.310;2022-07-21T06:47:18;95305.31;;;30.27;32.62
5380;BME280;2713;42.680;23.310;2022-07-21T06:49:45;95297.09;;;30.50;32.76
5380;BME280;2713;42.680;23.310;2022-07-21T06:52:12;95303.22;;;30.92;32.10
5380;BME280;2713;42.680;23.310;2022-07-21T06:54:39;95306.13;;;30.82;32.52
5380;BME280;2713;42.680;23.310;2022-07-21T06:57:06;95297.13;;;31.13;31.36
5380;BME280;2713;42.680;23.310;2022-07-21T06:59:33;95290.75;;;31.23;31.41
5380;BME280;2713;42.680;23.310;2022-07-21T07:02:00;95297.00;;;31.54;30.92
5380;BME280;2713;42.680;23.310;2022-07-21T07:04:28;95288.28;;;31.13;31.29
5380;BME280;2713;42.680;23.310;2022-07-21T07:06:55;95297.25;;;31.66;31.13
5380;BME280;2713;42.680;23.310;2022-07-21T07:09:22;95289.69;;;31.99;30.67
5380;BME280;2713;42.680;23.310;2022-07-21T07:11:50;95285.09;;;32.22;30.65
5380;BME280;2713;42.680;23.310;2022-07-21T07:14:17;95289.78;;;32.08;31.88
5380;BME280;2713;42.680;23.310;2022-07-21T07:16:46;95287.56;;;32.10;30.96
5380;BME280;2713;42.680;23.310;2022-07-21T07:19:13;95283.94;;;32.45;30.90
5380;BME280;2713;42.680;23.310;2022-07-21T07:21:41;95280.78;;;32.43;30.91
5380;BME280;2713;42.680;23.310;2022-07-21T07:24:08;95278.84;;;32.44;31.10
5380;BME280;2713;42.680;23.310;2022-07-21T07:26:35;95281.88;;;32.42;30.42
5380;BME280;2713;42.680;23.310;2022-07-21T07:29:02;95279.91;;;32.26;31.31
5380;BME280;2713;42.680;23.310;2022-07-21T07:31:29;95281.91;;;32.20;31.79
5380;BME280;2713;42.680;23.310;2022-07-21T07:33:56;95271.06;;;32.34;31.17
5380;BME280;2713;42.680;23.310;2022-07-21T07:36:23;95276.31;;;32.39;31.26
5380;BME280;2713;42.680;23.310;2022-07-21T07:38:52;95274.31;;;32.53;30.77
5380;BME280;2713;42.680;23.310;2022-07-21T07:41:19;95265.44;;;32.52;30.87
5380;BME280;2713;42.680;23.310;2022-07-21T07:43:46;95263.38;;;32.49;30.41
5380;BME280;2713;42.680;23.310;2022-07-21T07:46:14;95264.69;;;32.69;30.84
5380;BME280;2713;42.680;23.310;2022-07-21T07:48:41;95264.09;;;32.81;30.65
5380;BME280;2713;42.680;23.310;2022-07-21T07:51:08;95260.13;;;32.70;30.30
5380;BME280;2713;42.680;23.310;2022-07-21T07:53:36;95263.94;;;32.77;30.37
5380;BME280;2713;42.680;23.310;2022-07-21T07:56:05;95253.47;;;32.76;30.09
5380;BME280;2713;42.680;23.310;2022-07-21T07:58:32;95258.69;;;32.63;30.84
5380;BME280;2713;42.680;23.310;2022-07-21T08:00:59;95258.41;;;32.34;31.11
5380;BME280;2713;42.680;23.310;2022-07-21T08:03:27;95229.56;;;32.26;31.51
5380;BME280;2713;42.680;23.310;2022-07-21T08:05:55;95256.31;;;32.31;30.74
5380;BME280;2713;42.680;23.310;2022-07-21T08:08:24;95250.59;;;32.24;30.93
5380;BME280;2713;42.680;23.310;2022-07-21T08:10:51;95237.38;;;32.36;31.06
5380;BME280;2713;42.680;23.310;2022-07-21T08:13:19;95265.16;;;32.23;31.08
5380;BME280;2713;42.680;23.310;2022-07-21T08:15:47;95246.78;;;32.64;30.39
5380;BME280;2713;42.680;23.310;2022-07-21T08:18:15;95237.63;;;32.91;30.31
5380;BME280;2713;42.680;23.310;2022-07-21T08:20:46;95234.19;;;33.17;30.44
5380;BME280;2713;42.680;23.310;2022-07-21T08:23:13;95235.44;;;33.02;30.23
5380;BME280;2713;42.680;23.310;2022-07-21T08:25:41;95235.25;;;32.81;29.46
5380;BME280;2713;42.680;23.310;2022-07-21T08:28:09;95237.78;;;32.95;28.81
5380;BME280;2713;42.680;23.310;2022-07-21T08:30:37;95232.31;;;33.17;28.19
5380;BME280;2713;42.680;23.310;2022-07-21T08:33:05;95234.66;;;33.44;28.36
5380;BME280;2713;42.680;23.310;2022-07-21T08:35:32;95231.78;;;32.89;29.72
5380;BME280;2713;42.680;23.310;2022-07-21T08:38:01;95233.72;;;33.23;28.30
5380;BME280;2713;42.680;23.310;2022-07-21T08:40:30;95225.47;;;33.45;28.36
5380;BME280;2713;42.680;23.310;2022-07-21T08:42:58;95227.78;;;33.81;28.22
5380;BME280;2713;42.680;23.310;2022-07-21T08:45:25;95203.25;;;33.48;27.93
5380;BME280;2713;42.680;23.310;2022-07-21T08:47:55;95220.53;;;33.73;27.98
5380;BME280;2713;42.680;23.310;2022-07-21T08:50:23;95211.94;;;33.71;28.27
5380;BME280;2713;42.680;23.310;2022-07-21T08:52:50;95213.41;;;33.51;28.56
5380;BME280;2713;42.680;23.310;2022-07-21T08:55:17;95202.41;;;33.74;28.46
5380;BME280;2713;42.680;23.310;2022-07-21T08:57:44;95204.31;;;33.82;28.13
5380;BME280;2713;42.680;23.310;2022-07-21T09:00:11;95207.84;;;33.48;28.04
5380;BME280;2713;42.680;23.310;2022-07-21T09:02:39;95207.06;;;33.64;27.99
5380;BME280;2713;42.680;23.310;2022-07-21T09:05:08;95195.34;;;34.07;27.09
5380;BME280;2713;42.680;23.310;2022-07-21T09:07:49;95199.59;;;34.46;26.50
5380;BME280;2713;42.680;23.310;2022-07-21T09:10:21;95194.25;;;33.91;27.02
5380;BME280;2713;42.680;23.310;2022-07-21T09:12:50;95195.13;;;33.57;27.98
5380;BME280;2713;42.680;23.310;2022-07-21T09:15:19;95187.88;;;33.66;27.60
5380;BME280;2713;42.680;23.310;2022-07-21T09:18:03;95185.91;;;33.75;27.83
5380;BME280;2713;42.680;23.310;2022-07-21T09:20:32;95185.78;;;33.54;27.37
5380;BME280;2713;42.680;23.310;2022-07-21T09:23:07;95188.53;;;33.20;28.65
5380;BME280;2713;42.680;23.310;2022-07-21T09:25:36;95186.16;;;32.93;27.91
5380;BME280;2713;42.680;23.310;2022-07-21T09:28:12;95182.84;;;32.87;28.68
5380;BME280;2713;42.680;23.310;2022-07-21T09:30:50;95184.09;;;33.07;27.67
5380;BME280;2713;42.680;23.310;2022-07-21T09:33:19;95180.31;;;33.25;27.54
5380;BME280;2713;42.680;23.310;2022-07-21T09:36:02;95181.25;;;33.21;28.01
5380;BME280;2713;42.680;23.310;2022-07-21T09:38:31;95178.22;;;33.31;27.33
5380;BME280;2713;42.680;23.310;2022-07-21T09:41:10;95179.97;;;33.27;26.78
5380;BME280;2713;42.680;23.310;2022-07-21T09:43:40;95180.94;;;33.22;26.52
5380;BME280;2713;42.680;23.310;2022-07-21T09:46:16;95178.84;;;33.36;27.27
5380;BME280;2713;42.680;23.310;2022-07-21T09:48:45;95171.22;;;33.55;27.12
5380;BME280;2713;42.680;23.310;2022-07-21T09:51:22;95176.44;;;33.52;26.73
5380;BME280;2713;42.680;23.310;2022-07-21T09:53:51;95167.25;;;33.61;27.13
5380;BME280;2713;42.680;23.310;2022-07-21T09:56:19;95166.28;;;33.57;27.12
5380;BME280;2713;42.680;23.310;2022-07-21T09:58:46;95170.25;;;33.43;27.40
5380;BME280;2713;42.680;23.310;2022-07-21T10:01:14;95164.88;;;33.51;27.25
5380;BME280;2713;42.680;23.310;2022-07-21T10:03:43;95162.59;;;33.71;27.06
5380;BME280;2713;42.680;23.310;2022-07-21T10:06:10;95155.34;;;33.62;27.10
5380;BME280;2713;42.680;23.310;2022-07-21T10:08:38;95170.13;;;33.39;27.10
5380;BME280;2713;42.680;23.310;2022-07-21T10:11:06;95162.50;;;33.41;27.18
5380;BME280;2713;42.680;23.310;2022-07-21T10:13:33;95149.06;;;33.24;27.86
5380;BME280;2713;42.680;23.310;2022-07-21T10:16:00;95155.75;;;33.18;27.13
5380;BME280;2713;42.680;23.310;2022-07-21T10:18:30;95144.16;;;32.92;27.15
5380;BME280;2713;42.680;23.310;2022-07-21T10:21:04;95151.16;;;33.19;27.20
5380;BME280;2713;42.680;23.310;2022-07-21T10:23:39;95153.69;;;33.15;27.81
5380;BME280;2713;42.680;23.310;2022-07-21T10:26:06;95153.06;;;33.18;27.64
5380;BME280;2713;42.680;23.310;2022-07-21T10:28:34;95146.38;;;33.07;27.76
5380;BME280;2713;42.680;23.310;2022-07-21T10:31:13;95148.28;;;33.24;27.17
5380;BME280;2713;42.680;23.310;2022-07-21T10:34:02;95145.41;;;33.37;26.85
5380;BME280;2713;42.680;23.310;2022-07-21T10:36:40;95147.63;;;33.35;26.56
5380;BME280;2713;42.680;23.310;2022-07-21T10:39:30;95138.09;;;33.38;26.82
5380;BME280;2713;42.680;23.310;2022-07-21T10:41:58;95136.81;;;33.52;26.34
5380;BME280;2713;42.680;23.310;2022-07-21T10:44:46;95140.03;;;33.29;27.07
5380;BME280;2713;42.680;23.310;2022-07-21T10:47:15;95138.94;;;33.21;27.26
5380;BME280;2713;42.680;23.310;2022-07-21T10:49:46;95122.78;;;33.21;27.32
5380;BME280;2713;42.680;23.310;2022-07-21T10:55:21;95127.03;;;32.96;27.52
5380;BME280;2713;42.680;23.310;2022-07-21T10:58:25;95122.78;;;33.21;26.93
5380;BME280;2713;42.680;23.310;2022-07-21T11:00:53;95114.19;;;33.19;27.21
5380;BME280;2713;42.680;23.310;2022-07-21T11:03:24;95119.28;;;33.21;26.36
5380;BME280;2713;42.680;23.310;2022-07-21T11:06:18;95117.00;;;33.40;26.70
5380;BME280;2713;42.680;23.310;2022-07-21T11:08:48;95106.84;;;33.45;27.56
5380;BME280;2713;42.680;23.310;2022-07-21T11:11:18;95103.53;;;33.40;28.13
5380;BME280;2713;42.680;23.310;2022-07-21T11:14:06;95096.44;;;33.27;27.45
5380;BME280;2713;42.680;23.310;2022-07-21T11:16:57;95102.13;;;33.34;27.52
5380;BME280;2713;42.680;23.310;2022-07-21T11:19:32;95107.34;;;33.30;27.31
5380;BME280;2713;42.680;23.310;2022-07-21T11:22:03;95080.91;;;33.24;27.20
5380;BME280;2713;42.680;23.310;2022-07-21T11:24:31;95095.09;;;33.50;27.37
5380;BME280;2713;42.680;23.310;2022-07-21T11:27:02;95095.25;;;33.62;27.52
5380;BME280;2713;42.680;23.310;2022-07-21T11:29:30;95093.78;;;33.64;28.33
5380;BME280;2713;42.680;23.310;2022-07-21T11:31:58;95098.56;;;33.50;27.79
5380;BME280;2713;42.680;23.310;2022-07-21T11:34:38;95096.16;;;33.11;28.07
5380;BME280;2713;42.680;23.310;2022-07-21T11:37:05;95104.41;;;32.97;28.20
5380;BME280;2713;42.680;23.310;2022-07-21T11:39:32;95103.28;;;32.81;28.08
5380;BME280;2713;42.680;23.310;2022-07-21T11:42:04;95097.63;;;32.74;27.43
5380;BME280;2713;42.680;23.310;2022-07-21T11:44:31;95093.78;;;32.92;28.29
5380;BME280;2713;42.680;23.310;2022-07-21T11:47:00;95087.91;;;32.99;27.56
5380;BME280;2713;42.680;23.310;2022-07-21T11:49:27;95083.66;;;32.98;27.64
5380;BME280;2713;42.680;23.310;2022-07-21T11:51:57;95086.53;;;32.67;27.59
5380;BME280;2713;42.680;23.310;2022-07-21T11:54:30;95082.38;;;32.52;27.82
5380;BME280;2713;42.680;23.310;2022-07-21T11:56:59;95086.19;;;32.69;28.54
5380;BME280;2713;42.680;23.310;2022-07-21T11:59:28;95079.34;;;32.88;28.24
5380;BME280;2713;42.680;23.310;2022-07-21T12:02:01;95086.69;;;32.71;28.10
5380;BME280;2713;42.680;23.310;2022-07-21T12:04:40;95087.94;;;32.73;28.06
5380;BME280;2713;42.680;23.310;2022-07-21T12:07:21;95086.97;;;32.86;27.80
5380;BME280;2713;42.680;23.310;2022-07-21T12:09:51;95081.56;;;32.95;27.87
5380;BME280;2713;42.680;23.310;2022-07-21T12:12:29;95082.06;;;32.97;27.60
5380;BME280;2713;42.680;23.310;2022-07-21T12:15:05;95083.19;;;32.87;27.92
5380;BME280;2713;42.680;23.310;2022-07-21T12:17:42;95072.56;;;32.91;27.34
5380;BME280;2713;42.680;23.310;2022-07-21T12:20:11;95070.78;;;32.95;27.26
5380;BME280;2713;42.680;23.310;2022-07-21T12:22:40;95064.44;;;32.99;27.45
5380;BME280;2713;42.680;23.310;2022-07-21T12:25:11;95071.28;;;32.97;27.51
5380;BME280;2713;42.680;23.310;2022-07-21T12:27:40;95058.59;;;32.89;27.76
5380;BME280;2713;42.680;23.310;2022-07-21T12:30:17;95056.56;;;32.86;27.33
5380;BME280;2713;42.680;23.310;2022-07-21T12:33:01;95042.13;;;32.90;27.65
5380;BME280;2713;42.680;23.310;2022-07-21T12:35:29;95046.09;;;32.93;27.92
5380;BME280;2713;42.680;23.310;2022-07-21T12:37:58;95054.31;;;33.05;27.78
5380;BME280;2713;42.680;23.310;2022-07-21T12:40:26;95044.00;;;32.98;27.86
5380;BME280;2713;42.680;23.310;2022-07-21T12:43:19;95046.53;;;33.03;27.69
5380;BME280;2713;42.680;23.310;2022-07-21T12:45:55;95046.38;;;33.00;28.44
5380;BME280;2713;42.680;23.310;2022-07-21T12:48:24;95048.78;;;33.10;27.89
5380;BME280;2713;42.680;23.310;2022-07-21T12:51:03;95041.75;;;33.09;28.37
5380;BME280;2713;42.680;23.310;2022-07-21T12:53:31;95034.31;;;33.06;28.84
5380;BME280;2713;42.680;23.310;2022-07-21T12:56:00;95043.53;;;33.05;28.48
5380;BME280;2713;42.680;23.310;2022-07-21T12:58:27;95042.72;;;33.13;28.13
5380;BME280;2713;42.680;23.310;2022-07-21T13:00:56;95040.19;;;33.17;28.58
5380;BME280;2713;42.680;23.310;2022-07-21T13:03:23;95038.59;;;33.15;28.32
5380;BME280;2713;42.680;23.310;2022-07-21T13:05:50;95031.81;;;33.01;28.67
5380;BME280;2713;42.680;23.310;2022-07-21T13:08:16;95036.72;;;33.07;29.21
5380;BME280;2713;42.680;23.310;2022-07-21T13:10:44;95034.06;;;32.82;28.72
5380;BME280;2713;42.680;23.310;2022-07-21T13:13:11;95011.28;;;32.71;28.73
5380;BME280;2713;42.680;23.310;2022-07-21T13:15:38;95022.84;;;32.71;29.34
5380;BME280;2713;42.680;23.310;2022-07-21T13:18:06;95027.25;;;32.76;28.83
5380;BME280;2713;42.680;23.310;2022-07-21T13:35:21;95003.75;;;33.10;28.61
5380;BME280;2713;42.680;23.310;2022-07-21T13:37:48;95001.91;;;32.85;28.36